createdAt,value
2019-01-21T00:02:44.921Z,77.93
2019-01-21T00:05:48.753Z,78.08
2019-01-21T00:08:52.288Z,78.69
2019-01-21T00:11:55.936Z,78.91
2019-01-21T00:14:59.471Z,77.87
2019-01-21T00:18:03.146Z,77.98
2019-01-21T00:21:06.795Z,77.08
2019-01-21T00:24:10.360Z,77.34
2019-01-21T00:27:13.914Z,77.15
2019-01-21T00:30:17.597Z,76.99
2019-01-21T00:33:21.151Z,76.98
2019-01-21T00:36:24.779Z,77.69
2019-01-21T00:39:28.295Z,77.11
2019-01-21T00:42:31.857Z,77.39
2019-01-21T00:45:35.494Z,77.82
2019-01-21T00:48:39.073Z,77.60
2019-01-21T00:51:42.621Z,77.09
2019-01-21T00:54:46.171Z,77.27
2019-01-21T00:57:49.754Z,77.35
2019-01-21T01:00:53.364Z,77.08
2019-01-21T01:03:56.963Z,77.73
2019-01-21T01:07:00.610Z,77.85
2019-01-21T01:10:04.447Z,78.26
2019-01-21T01:13:08.084Z,78.44
2019-01-21T01:16:11.660Z,77.79
2019-01-21T01:19:15.256Z,78.17
2019-01-21T01:22:18.880Z,78.27
2019-01-21T01:25:22.394Z,78.62
2019-01-21T01:28:26.000Z,79.45
2019-01-21T01:31:29.545Z,79.38
2019-01-21T01:34:33.135Z,80.07
2019-01-21T01:37:36.783Z,79.26
2019-01-21T01:40:40.361Z,79.61
2019-01-21T01:43:44.012Z,79.85
2019-01-21T01:46:47.537Z,79.57
2019-01-21T01:49:51.057Z,79.91
2019-01-21T01:52:54.640Z,80.38
2019-01-21T01:55:58.154Z,80.26
2019-01-21T01:59:01.920Z,79.80
2019-01-21T02:02:05.553Z,80.17
2019-01-21T02:05:09.439Z,79.56
2019-01-21T02:08:13.259Z,79.84
2019-01-21T02:11:16.901Z,79.63
2019-01-21T02:14:20.584Z,80.06
2019-01-21T02:17:24.262Z,80.11
2019-01-21T02:20:27.923Z,79.64
2019-01-21T02:23:35.819Z,79.55
2019-01-21T02:26:45.936Z,79.31
2019-01-21T02:32:01.876Z,79.76
2019-01-21T02:35:14.869Z,79.30
2019-01-21T02:38:32.304Z,79.36
2019-01-21T02:41:47.903Z,79.88
2019-01-21T02:45:37.657Z,79.30
2019-01-21T02:48:58.880Z,79.30
2019-01-21T02:52:47.068Z,79.68
2019-01-21T02:56:10.489Z,78.86
2019-01-21T02:59:29.236Z,78.81
2019-01-21T03:02:49.218Z,79.27
2019-01-21T03:08:08.832Z,78.49
2019-01-21T03:11:22.031Z,78.46
2019-01-21T03:14:41.922Z,78.67
2019-01-21T03:18:08.107Z,78.80
2019-01-21T03:21:19.704Z,79.40
2019-01-21T03:24:41.260Z,79.39
2019-01-21T03:30:01.155Z,78.81
2019-01-21T03:34:18.393Z,78.63
2019-01-21T03:38:46.783Z,78.48
2019-01-21T03:41:59.831Z,79.61
2019-01-21T03:48:16.797Z,79.79
2019-01-21T03:53:34.111Z,79.93
2019-01-21T03:56:46.656Z,80.33
2019-01-21T04:00:03.655Z,79.70
2019-01-21T04:05:19.486Z,80.55
2019-01-21T04:10:40.019Z,80.56
2019-01-21T04:14:24.374Z,80.54
2019-01-21T04:17:38.716Z,81.42
2019-01-21T04:23:03.159Z,80.68
2019-01-21T04:26:21.355Z,81.22
2019-01-21T04:29:34.870Z,81.69
2019-01-21T04:34:52.213Z,82.03
2019-01-21T04:38:05.143Z,81.59
2019-01-21T04:43:20.804Z,81.44
2019-01-21T04:47:49.335Z,82.34
2019-01-21T04:53:08.278Z,82.82
2019-01-21T04:56:37.434Z,83.35
2019-01-21T05:00:54.487Z,82.33
2019-01-21T05:05:10.988Z,82.13
2019-01-21T05:08:30.479Z,81.92
2019-01-21T05:12:00.499Z,81.18
2019-01-21T05:19:22.286Z,81.20
2019-01-21T05:23:08.426Z,82.03
2019-01-21T05:26:25.014Z,81.90
2019-01-21T05:29:42.902Z,82.53
2019-01-21T05:33:02.615Z,83.15
2019-01-21T05:36:29.669Z,82.33
2019-01-21T05:39:53.028Z,82.95
2019-01-21T05:43:36.642Z,83.16
2019-01-21T05:47:22.153Z,83.02
2019-01-21T05:52:42.887Z,82.21
2019-01-21T05:56:06.066Z,81.81
2019-01-21T05:59:31.457Z,81.83
2019-01-21T06:02:54.899Z,81.99
2019-01-21T06:06:12.109Z,81.52
2019-01-21T06:09:39.394Z,81.70
2019-01-21T06:13:12.419Z,81.77
2019-01-21T06:16:39.445Z,82.40
2019-01-21T06:20:10.583Z,81.91
2019-01-21T06:23:41.050Z,81.83
2019-01-21T06:26:58.307Z,81.71
2019-01-21T06:32:49.032Z,81.96
2019-01-21T06:36:10.676Z,82.58
2019-01-21T06:39:40.127Z,82.76
2019-01-21T06:42:56.672Z,83.00
2019-01-21T06:50:14.609Z,83.01
2019-01-21T06:55:29.279Z,82.32
2019-01-21T06:58:43.598Z,82.15
2019-01-21T07:02:09.643Z,82.15
2019-01-21T07:05:24.367Z,81.67
2019-01-21T07:08:41.192Z,81.99
2019-01-21T07:11:56.345Z,81.90
2019-01-21T07:15:24.328Z,81.52
2019-01-21T07:18:42.015Z,80.89
2019-01-21T07:22:01.753Z,81.21
2019-01-21T07:27:30.848Z,81.46
2019-01-21T07:30:49.038Z,81.69
2019-01-21T07:36:05.486Z,82.27
2019-01-21T07:39:25.798Z,81.48
2019-01-21T07:44:45.773Z,82.52
2019-01-21T07:48:07.184Z,82.31
2019-01-21T07:51:22.510Z,81.83
2019-01-21T07:54:43.096Z,82.17
2019-01-21T07:58:16.691Z,82.18
2019-01-21T08:01:42.286Z,81.40
2019-01-21T08:05:36.301Z,81.98
2019-01-21T08:08:53.730Z,81.50
2019-01-21T08:14:13.779Z,81.79
2019-01-21T08:17:44.241Z,82.36
2019-01-21T08:21:03.746Z,83.38
2019-01-21T08:24:20.198Z,83.81
2019-01-21T08:27:51.049Z,83.14
2019-01-21T08:31:34.756Z,82.62
2019-01-21T08:34:48.047Z,82.66
2019-01-21T08:39:06.662Z,82.49
2019-01-21T08:46:03.124Z,83.63
2019-01-21T08:49:19.213Z,84.40
2019-01-21T08:53:03.998Z,84.52
2019-01-21T08:56:16.678Z,84.83
2019-01-21T08:59:29.173Z,83.73
2019-01-21T09:02:45.508Z,83.83
2019-01-21T09:06:37.031Z,84.36
2019-01-21T09:10:13.243Z,83.95
2019-01-21T09:13:59.111Z,84.38
2019-01-21T09:17:51.303Z,84.52
2019-01-21T09:23:09.842Z,83.26
2019-01-21T09:26:37.305Z,82.54
2019-01-21T09:29:58.476Z,82.92
2019-01-21T09:33:17.531Z,81.78
2019-01-21T09:36:48.392Z,82.00
2019-01-21T09:41:41.771Z,82.19
2019-01-21T09:44:55.396Z,81.33
2019-01-21T09:47:57.699Z,80.57
2019-01-21T09:51:05.063Z,80.75
2019-01-21T09:54:08.668Z,80.92
2019-01-21T09:57:19.424Z,80.89
2019-01-21T10:00:23.029Z,80.84
2019-01-21T10:03:31.123Z,81.12
2019-01-21T10:06:43.115Z,79.92
2019-01-21T10:13:04.338Z,78.30
2019-01-21T10:18:32.623Z,78.68
2019-01-21T10:23:48.173Z,78.75
2019-01-21T10:27:22.425Z,78.18
2019-01-21T10:30:55.783Z,77.40
2019-01-21T10:35:19.403Z,77.35
2019-01-21T10:39:35.843Z,77.46
2019-01-21T10:42:50.644Z,76.10
2019-01-21T10:46:13.499Z,76.09
2019-01-21T10:51:36.154Z,76.21
2019-01-21T10:54:58.326Z,75.10
2019-01-21T10:58:10.222Z,74.38
2019-01-21T11:01:29.497Z,73.52
2019-01-21T11:05:05.708Z,73.08
2019-01-21T11:08:21.217Z,74.20
2019-01-21T11:11:53.959Z,73.23
2019-01-21T11:15:31.429Z,72.98
2019-01-21T11:19:21.948Z,71.68
2019-01-21T11:22:39.265Z,71.11
2019-01-21T11:27:57.608Z,70.54
2019-01-21T11:31:40.581Z,69.93
2019-01-21T11:36:54.899Z,70.98
2019-01-21T11:40:12.602Z,69.30
2019-01-21T11:43:59.668Z,68.87
2019-01-21T11:47:18.507Z,69.06
2019-01-21T11:50:42.095Z,68.29
2019-01-21T11:53:57.635Z,66.30
2019-01-21T11:57:09.714Z,65.61
2019-01-21T12:00:25.703Z,66.56
2019-01-21T12:03:40.897Z,66.53
2019-01-21T12:06:54.903Z,66.89
2019-01-21T12:10:10.211Z,66.64
2019-01-21T12:13:25.948Z,63.92
2019-01-21T12:18:47.325Z,63.77
2019-01-21T12:22:07.015Z,63.60
2019-01-21T12:25:18.909Z,63.17
2019-01-21T12:29:38.234Z,61.95
2019-01-21T12:32:52.794Z,61.74
2019-01-21T12:36:00.831Z,62.28
2019-01-21T12:41:29.530Z,62.93
2019-01-21T12:44:41.110Z,59.98
2019-01-21T12:48:57.219Z,59.12
2019-01-21T12:52:36.599Z,58.33
2019-01-21T12:55:51.693Z,59.54
2019-01-21T12:59:15.983Z,59.72
2019-01-21T13:02:27.269Z,61.29
2019-01-21T13:05:40.482Z,59.27
2019-01-21T13:08:52.037Z,58.80
2019-01-21T13:12:12.074Z,58.09
2019-01-21T13:15:30.535Z,60.25
2019-01-21T13:20:52.979Z,60.58
2019-01-21T13:24:04.984Z,58.72
2019-01-21T13:27:33.388Z,58.51
2019-01-21T13:31:02.049Z,58.38
2019-01-21T13:34:45.982Z,60.35
2019-01-21T13:40:06.393Z,60.07
2019-01-21T13:43:28.542Z,60.58
2019-01-21T13:47:43.823Z,61.54
2019-01-21T13:51:35.011Z,62.22
2019-01-21T13:54:46.070Z,62.69
2019-01-21T13:58:05.114Z,61.90
2019-01-21T14:01:16.479Z,61.70
2019-01-21T14:06:38.900Z,61.02
2019-01-21T14:10:00.579Z,61.26
2019-01-21T14:13:17.695Z,62.17
2019-01-21T14:17:06.358Z,62.00
2019-01-21T14:20:23.469Z,60.99
2019-01-21T14:23:35.293Z,61.59
2019-01-21T14:26:50.062Z,62.47
2019-01-21T14:31:20.384Z,62.55
2019-01-21T14:34:38.968Z,62.07
2019-01-21T14:37:56.809Z,63.94
2019-01-21T14:41:18.241Z,63.24
2019-01-21T14:44:38.454Z,63.79
2019-01-21T14:47:53.068Z,63.19
2019-01-21T14:53:10.236Z,64.27
2019-01-21T14:56:23.891Z,65.46
2019-01-21T15:00:39.903Z,64.33
2019-01-21T15:06:11.150Z,64.24
2019-01-21T15:09:27.343Z,65.86
2019-01-21T15:14:49.966Z,67.05
2019-01-21T15:18:09.214Z,68.51
2019-01-21T15:21:28.579Z,69.21
2019-01-21T15:26:45.986Z,69.02
2019-01-21T15:32:07.077Z,68.85
2019-01-21T15:35:55.147Z,69.01
2019-01-21T15:40:11.143Z,69.60
2019-01-21T15:43:25.272Z,70.16
2019-01-21T15:46:45.901Z,70.27
2019-01-21T15:50:11.305Z,70.34
2019-01-21T15:53:30.240Z,71.09
2019-01-21T15:57:51.564Z,71.47
2019-01-21T16:02:05.482Z,73.43
2019-01-21T16:05:36.199Z,71.65
2019-01-21T16:08:51.317Z,71.28
2019-01-21T16:12:09.002Z,71.67
2019-01-21T16:15:26.033Z,70.90
2019-01-21T16:18:33.809Z,71.96
2019-01-21T16:23:50.337Z,71.84
2019-01-21T16:27:03.965Z,73.09
2019-01-21T16:30:18.871Z,73.79
2019-01-21T16:33:39.185Z,73.95
2019-01-21T16:36:53.272Z,74.46
2019-01-21T16:40:22.878Z,74.40
2019-01-21T16:43:27.319Z,73.79
2019-01-21T16:46:31.584Z,73.45
2019-01-21T16:49:35.183Z,73.70
2019-01-21T16:52:38.953Z,73.93
2019-01-21T16:55:42.854Z,74.64
2019-01-21T16:58:46.728Z,74.17
2019-01-21T17:01:50.296Z,74.03
2019-01-21T17:04:54.167Z,74.17
2019-01-21T17:07:57.943Z,74.26
2019-01-21T17:11:01.597Z,74.71
2019-01-21T17:14:09.743Z,74.81
2019-01-21T17:17:13.460Z,74.74
2019-01-21T17:20:19.446Z,74.31
2019-01-21T17:23:23.099Z,74.59
2019-01-21T17:26:26.802Z,75.50
2019-01-21T17:29:30.591Z,75.51
2019-01-21T17:32:34.226Z,75.12
2019-01-21T17:35:37.874Z,75.97
2019-01-21T17:38:41.501Z,76.50
2019-01-21T17:41:47.463Z,76.07
2019-01-21T17:48:25.978Z,76.03
2019-01-21T17:51:34.442Z,76.34
2019-01-21T17:54:37.104Z,76.06
2019-01-21T17:57:42.022Z,76.15
2019-01-21T18:00:45.944Z,76.31
2019-01-21T18:03:49.750Z,76.20
2019-01-21T18:06:53.477Z,75.85
2019-01-21T18:09:57.118Z,75.81
2019-01-21T18:13:02.758Z,75.54
2019-01-21T18:16:06.460Z,75.30
2019-01-21T18:19:10.116Z,75.91
2019-01-21T18:22:13.815Z,75.71
2019-01-21T18:25:17.546Z,75.72
2019-01-21T18:28:21.198Z,76.13
2019-01-21T18:31:24.839Z,76.60
2019-01-21T18:34:30.531Z,76.65
2019-01-21T18:37:34.285Z,77.05
2019-01-21T18:40:37.967Z,77.02
2019-01-21T18:43:41.669Z,77.31
2019-01-21T18:46:45.355Z,77.19
2019-01-21T18:49:49.193Z,77.30
2019-01-21T18:52:53.442Z,77.35
2019-01-21T18:55:57.163Z,76.86
2019-01-21T18:59:00.994Z,77.24
2019-01-21T19:02:04.853Z,77.50
2019-01-21T19:05:09.308Z,77.49
2019-01-21T19:08:13.078Z,77.47
2019-01-21T19:11:16.725Z,77.78
2019-01-21T19:14:20.568Z,77.95
2019-01-21T19:17:25.166Z,78.27
2019-01-21T19:20:28.894Z,78.18
2019-01-21T19:23:32.549Z,78.86
2019-01-21T19:26:36.323Z,78.59
2019-01-21T19:29:42.003Z,78.71
2019-01-21T19:32:45.670Z,78.71
2019-01-21T19:35:49.428Z,78.50
2019-01-21T19:38:54.143Z,78.50
2019-01-21T19:41:57.794Z,78.88
2019-01-21T19:45:01.448Z,78.98
2019-01-21T19:48:05.179Z,78.91
2019-01-21T19:51:09.248Z,78.69
2019-01-21T19:54:13.195Z,78.75
2019-01-21T19:57:16.868Z,78.29
2019-01-21T20:00:20.692Z,78.22
2019-01-21T20:03:24.234Z,78.12
2019-01-21T20:06:27.819Z,78.38
2019-01-21T20:09:31.466Z,78.84
2019-01-21T20:12:35.175Z,78.49
2019-01-21T20:15:38.957Z,78.98
2019-01-21T20:18:42.558Z,79.17
2019-01-21T20:21:47.509Z,80.01
2019-01-21T20:24:52.422Z,80.16
2019-01-21T20:27:56.297Z,80.82
2019-01-21T20:30:59.944Z,80.44
2019-01-21T20:34:03.766Z,80.24
2019-01-21T20:37:07.468Z,79.65
2019-01-21T20:40:14.212Z,79.77
2019-01-21T20:43:18.067Z,80.06
2019-01-21T20:46:25.075Z,80.58
2019-01-21T20:49:28.845Z,80.75
2019-01-21T20:52:32.772Z,81.39
2019-01-21T20:55:36.535Z,81.44
2019-01-21T20:58:40.146Z,82.14
2019-01-21T21:01:43.849Z,81.63
2019-01-21T21:04:47.491Z,81.85
2019-01-21T21:07:51.068Z,81.28
2019-01-21T21:10:54.632Z,81.75
2019-01-21T21:13:58.163Z,81.56
2019-01-21T21:17:01.772Z,80.87
2019-01-21T21:20:06.027Z,80.66
2019-01-21T21:23:09.578Z,80.30
2019-01-21T21:26:13.237Z,80.71
2019-01-21T21:29:16.887Z,81.02
2019-01-21T21:32:20.556Z,81.47
2019-01-21T21:35:24.298Z,83.23
2019-01-21T21:38:28.072Z,82.15
2019-01-21T21:41:31.677Z,83.00
2019-01-21T21:44:35.344Z,82.61
2019-01-21T21:47:38.894Z,84.14
2019-01-21T21:50:42.655Z,85.00
2019-01-21T21:53:46.443Z,84.39
2019-01-21T21:56:50.990Z,83.58
2019-01-21T21:59:54.693Z,85.45
2019-01-21T22:02:58.482Z,84.83
2019-01-21T22:06:02.280Z,84.63
2019-01-21T22:09:07.785Z,83.60
2019-01-21T22:12:11.552Z,85.08
2019-01-21T22:15:16.975Z,85.02
2019-01-21T22:18:20.712Z,85.15
2019-01-21T22:21:24.766Z,83.44
2019-01-21T22:24:29.549Z,83.60
2019-01-21T22:27:33.296Z,84.52
2019-01-21T22:30:37.021Z,84.51
2019-01-21T22:33:40.716Z,84.88
2019-01-21T22:36:44.447Z,83.38
2019-01-21T22:39:48.095Z,83.78
2019-01-21T22:42:51.971Z,83.85
2019-01-21T22:45:56.270Z,83.77
2019-01-21T22:48:59.989Z,84.02
2019-01-21T22:52:03.763Z,84.42
2019-01-21T22:55:08.625Z,83.36
2019-01-21T22:58:12.275Z,82.80
2019-01-21T23:01:23.083Z,84.39
2019-01-21T23:04:26.763Z,83.32
2019-01-21T23:07:30.369Z,83.14
2019-01-21T23:10:34.128Z,82.64
2019-01-21T23:13:37.793Z,82.63
2019-01-21T23:16:41.462Z,82.96
2019-01-21T23:19:45.124Z,83.15
2019-01-21T23:22:49.458Z,82.85
2019-01-21T23:25:53.326Z,82.17
2019-01-21T23:28:56.912Z,81.84
2019-01-21T23:32:00.477Z,82.40
2019-01-21T23:35:04.195Z,82.73
2019-01-21T23:38:07.898Z,83.02
2019-01-21T23:41:11.581Z,82.70
2019-01-21T23:44:15.194Z,82.97
2019-01-21T23:47:18.819Z,82.42
2019-01-21T23:50:22.521Z,82.33
2019-01-21T23:53:26.196Z,82.25
2019-01-21T23:56:29.883Z,82.60
2019-01-21T23:59:33.420Z,83.03
